createdAt,value
2023-02-11T00:00:45.086Z,42.80
2023-02-11T00:03:11.968Z,47.90
2023-02-11T00:05:38.862Z,60.30
2023-02-11T00:08:07.492Z,61.60
2023-02-11T00:10:34.399Z,68.40
2023-02-11T00:13:01.396Z,69.70
2023-02-11T00:15:28.240Z,72.70
2023-02-11T00:17:55.392Z,73.20
2023-02-11T00:20:22.416Z,71.00
2023-02-11T00:22:49.558Z,74.80
2023-02-11T00:25:17.793Z,71.60
2023-02-11T00:27:44.959Z,76.40
2023-02-11T00:30:12.403Z,78.50
2023-02-11T00:32:39.574Z,78.70
2023-02-11T00:35:07.269Z,77.60
2023-02-11T00:37:36.896Z,79.40
2023-02-11T00:40:06.626Z,80.80
2023-02-11T00:42:38.197Z,84.90
2023-02-11T00:45:05.449Z,85.90
2023-02-11T00:47:32.756Z,85.60
2023-02-11T00:50:00.914Z,89.80
2023-02-11T00:52:28.124Z,87.80
2023-02-11T00:54:54.943Z,91.00
2023-02-11T00:57:22.220Z,91.80
2023-02-11T00:59:50.733Z,93.20
2023-02-11T01:02:18.458Z,93.30
2023-02-11T01:04:45.321Z,92.50
2023-02-11T01:07:12.467Z,98.90
2023-02-11T01:09:39.382Z,95.90
2023-02-11T01:12:06.703Z,96.00
2023-02-11T01:14:33.612Z,96.10
2023-02-11T01:17:02.280Z,96.60
2023-02-11T01:19:29.137Z,95.50
2023-02-11T01:21:56.297Z,96.60
2023-02-11T01:24:23.090Z,95.80
2023-02-11T01:26:49.942Z,97.30
2023-02-11T01:29:16.843Z,99.90
2023-02-11T01:31:43.979Z,99.90
2023-02-11T01:34:12.523Z,99.90
2023-02-11T01:36:39.747Z,99.90
2023-02-11T01:39:06.621Z,99.90
2023-02-11T01:41:33.730Z,99.90
2023-02-11T01:44:22.955Z,99.90
2023-02-11T01:46:49.935Z,99.90
2023-02-11T01:49:21.375Z,99.90
2023-02-11T01:51:53.295Z,99.90
2023-02-11T01:54:41.419Z,99.90
2023-02-11T01:57:23.698Z,99.90
2023-02-11T01:59:58.834Z,99.90
2023-02-11T02:02:30.698Z,99.90
2023-02-11T02:05:04.805Z,99.90
2023-02-11T02:07:37.393Z,99.90
2023-02-11T02:10:09.549Z,99.90
2023-02-11T02:12:36.778Z,99.90
2023-02-11T02:15:20.476Z,99.90
2023-02-11T02:18:00.496Z,99.90
2023-02-11T02:21:00.878Z,99.90
2023-02-11T02:24:03.056Z,99.90
2023-02-11T02:27:02.616Z,99.90
2023-02-11T02:30:05.965Z,99.90
2023-02-11T02:33:22.934Z,99.90
2023-02-11T02:35:58.552Z,99.90
2023-02-11T02:38:30.686Z,99.90
2023-02-11T02:41:01.367Z,99.90
2023-02-11T02:43:30.619Z,99.90
2023-02-11T02:46:11.580Z,99.90
2023-02-11T02:48:40.197Z,99.90
2023-02-11T02:51:18.329Z,99.90
2023-02-11T02:53:55.300Z,99.90
2023-02-11T02:56:44.893Z,99.90
2023-02-11T02:59:25.778Z,99.90
2023-02-11T03:02:03.357Z,99.90
2023-02-11T03:04:37.697Z,99.90
2023-02-11T03:07:12.193Z,99.90
2023-02-11T03:09:43.305Z,99.90
2023-02-11T03:12:12.309Z,99.90
2023-02-11T03:14:40.485Z,99.90
2023-02-11T03:17:09.900Z,99.90
2023-02-11T03:19:40.914Z,99.90
2023-02-11T03:22:11.673Z,99.90
2023-02-11T03:24:41.173Z,99.90
2023-02-11T03:27:15.704Z,99.90
2023-02-11T03:29:51.499Z,99.90
2023-02-11T03:32:25.781Z,99.90
2023-02-11T03:34:58.973Z,99.90
2023-02-11T03:37:31.028Z,99.90
2023-02-11T03:40:02.251Z,99.90
2023-02-11T03:42:33.912Z,99.90
2023-02-11T03:45:05.141Z,99.90
2023-02-11T03:47:35.572Z,99.90
2023-02-11T03:50:06.413Z,99.90
2023-02-11T03:52:35.641Z,99.90
2023-02-11T03:55:07.294Z,99.90
2023-02-11T03:57:35.091Z,99.90
2023-02-11T04:00:02.050Z,99.90
2023-02-11T04:02:32.790Z,99.90
2023-02-11T04:04:59.772Z,99.90
2023-02-11T04:07:28.567Z,99.90
2023-02-11T04:09:55.426Z,99.90
2023-02-11T04:12:23.063Z,99.90
2023-02-11T04:14:49.851Z,99.90
2023-02-11T04:17:17.558Z,99.90
2023-02-11T04:19:44.539Z,99.90
2023-02-11T04:22:11.619Z,99.90
2023-02-11T04:24:39.934Z,99.90
2023-02-11T04:27:07.059Z,99.90
2023-02-11T04:29:33.893Z,99.90
2023-02-11T04:32:00.980Z,99.90
2023-02-11T04:34:27.975Z,99.90
2023-02-11T04:36:54.829Z,99.90
2023-02-11T04:39:21.596Z,99.90
2023-02-11T04:41:50.133Z,99.90
2023-02-11T04:44:17.310Z,99.90
2023-02-11T04:46:44.710Z,99.90
2023-02-11T04:49:13.755Z,99.90
2023-02-11T04:51:40.961Z,99.90
2023-02-11T04:54:08.338Z,99.90
2023-02-11T04:56:35.136Z,99.90
2023-02-11T04:59:03.379Z,99.90
2023-02-11T05:01:30.274Z,99.90
2023-02-11T05:03:57.593Z,99.90
2023-02-11T05:06:24.479Z,99.90
2023-02-11T05:08:51.765Z,99.90
2023-02-11T05:11:21.593Z,99.90
2023-02-11T05:13:48.869Z,99.90
2023-02-11T05:16:18.282Z,99.90
2023-02-11T05:18:46.198Z,99.90
2023-02-11T05:21:15.941Z,99.90
2023-02-11T05:23:43.848Z,99.90
2023-02-11T05:26:11.680Z,99.90
2023-02-11T05:28:39.366Z,99.90
2023-02-11T05:31:06.614Z,99.90
2023-02-11T05:33:35.348Z,99.90
2023-02-11T05:36:04.158Z,99.90
2023-02-11T05:38:31.006Z,99.90
2023-02-11T05:40:58.351Z,99.90
2023-02-11T05:43:25.635Z,99.90
2023-02-11T05:45:52.751Z,99.90
2023-02-11T05:48:20.149Z,99.90
2023-02-11T05:50:48.489Z,99.90
2023-02-11T05:53:15.405Z,99.90
2023-02-11T05:55:42.197Z,99.90
2023-02-11T05:58:09.263Z,99.90
2023-02-11T06:00:36.264Z,99.90
2023-02-11T06:03:04.819Z,99.90
2023-02-11T06:05:32.041Z,99.90
2023-02-11T06:08:00.390Z,99.90
2023-02-11T06:10:27.230Z,99.90
2023-02-11T06:12:54.352Z,99.90
2023-02-11T06:15:21.209Z,99.90
2023-02-11T06:17:48.477Z,99.90
2023-02-11T06:20:15.510Z,99.90
2023-02-11T06:22:42.719Z,99.90
2023-02-11T06:25:11.219Z,99.90
2023-02-11T06:27:38.732Z,99.90
2023-02-11T06:30:07.133Z,99.90
2023-02-11T06:32:49.610Z,99.90
2023-02-11T06:35:17.056Z,99.90
2023-02-11T06:37:44.255Z,99.90
2023-02-11T06:40:12.900Z,99.90
2023-02-11T06:42:39.908Z,99.90
2023-02-11T06:45:09.102Z,99.90
2023-02-11T06:47:36.065Z,99.90
2023-02-11T06:50:03.526Z,99.90
2023-02-11T06:52:30.368Z,99.90
2023-02-11T06:54:57.554Z,99.90
2023-02-11T06:57:25.780Z,99.90
2023-02-11T06:59:53.073Z,99.90
2023-02-11T07:02:21.114Z,99.90
2023-02-11T07:04:48.418Z,99.90
2023-02-11T07:07:15.266Z,99.90
2023-02-11T07:09:42.545Z,99.90
2023-02-11T07:12:10.204Z,99.90
2023-02-11T07:14:38.973Z,99.90
2023-02-11T07:17:05.811Z,99.90
2023-02-11T07:19:33.000Z,99.90
2023-02-11T07:21:59.801Z,99.90
2023-02-11T07:24:27.030Z,99.90
2023-02-11T07:26:54.115Z,99.90
2023-02-11T07:29:21.529Z,99.90
2023-02-11T07:31:50.331Z,99.90
2023-02-11T07:34:17.708Z,99.90
2023-02-11T07:36:45.093Z,99.90
2023-02-11T07:39:12.404Z,99.90
2023-02-11T07:41:39.196Z,99.90
2023-02-11T07:44:07.103Z,99.90
2023-02-11T07:46:35.665Z,99.90
2023-02-11T07:49:04.590Z,99.90
2023-02-11T07:51:31.893Z,99.90
2023-02-11T07:54:00.152Z,99.90
2023-02-11T07:56:28.228Z,99.90
2023-02-11T07:58:57.140Z,99.90
2023-02-11T08:01:28.191Z,99.90
2023-02-11T08:03:56.676Z,99.90
2023-02-11T08:06:27.229Z,99.90
2023-02-11T08:08:54.534Z,99.90
2023-02-11T08:11:23.429Z,99.90
2023-02-11T08:13:50.408Z,99.90
2023-02-11T08:16:19.746Z,99.90
2023-02-11T08:18:46.794Z,99.90
2023-02-11T08:21:14.023Z,99.90
2023-02-11T08:23:43.700Z,99.90
2023-02-11T08:26:12.749Z,99.90
2023-02-11T08:28:41.482Z,99.90
2023-02-11T08:31:10.657Z,99.90
2023-02-11T08:33:38.112Z,99.90
2023-02-11T08:36:09.038Z,99.90
2023-02-11T08:38:35.862Z,99.90
2023-02-11T08:41:05.003Z,99.90
2023-02-11T08:43:33.278Z,99.90
2023-02-11T08:46:02.205Z,99.90
2023-02-11T08:48:29.953Z,99.90
2023-02-11T08:50:57.564Z,99.90
2023-02-11T08:53:25.029Z,99.90
2023-02-11T08:55:53.882Z,99.90
2023-02-11T08:58:22.389Z,99.90
2023-02-11T09:00:50.581Z,99.90
2023-02-11T09:03:17.977Z,99.90
2023-02-11T09:05:46.122Z,99.90
2023-02-11T09:08:13.755Z,99.90
2023-02-11T09:10:41.049Z,99.90
2023-02-11T09:13:08.368Z,99.90
2023-02-11T09:15:37.148Z,99.90
2023-02-11T09:18:05.422Z,99.90
2023-02-11T09:20:32.725Z,99.90
2023-02-11T09:22:59.817Z,99.90
2023-02-11T09:25:27.041Z,99.90
2023-02-11T09:27:54.014Z,99.90
2023-02-11T09:30:21.090Z,99.90
2023-02-11T09:32:49.204Z,99.90
2023-02-11T09:35:16.597Z,99.90
2023-02-11T09:37:43.355Z,99.90
2023-02-11T09:40:11.380Z,99.90
2023-02-11T09:42:43.876Z,99.90
2023-02-11T09:45:18.687Z,99.90
2023-02-11T09:47:54.450Z,99.90
2023-02-11T09:50:27.203Z,99.90
2023-02-11T09:53:00.457Z,99.90
2023-02-11T09:55:29.710Z,99.90
2023-02-11T09:57:57.963Z,99.90
2023-02-11T10:00:28.637Z,99.90
2023-02-11T10:03:22.365Z,99.90
2023-02-11T10:06:10.570Z,99.90
2023-02-11T10:08:47.630Z,99.90
2023-02-11T10:11:31.710Z,99.90
2023-02-11T10:14:11.271Z,99.90
2023-02-11T10:16:54.336Z,99.90
2023-02-11T10:19:38.644Z,99.90
2023-02-11T10:22:12.548Z,99.90
2023-02-11T10:24:41.395Z,99.90
2023-02-11T10:27:16.858Z,99.90
2023-02-11T10:29:49.694Z,99.90
2023-02-11T10:32:29.217Z,99.90
2023-02-11T10:35:02.824Z,99.90
2023-02-11T10:37:30.772Z,99.90
2023-02-11T10:39:57.695Z,99.90
2023-02-11T10:42:26.076Z,99.90
2023-02-11T10:44:59.044Z,99.90
2023-02-11T10:47:33.511Z,99.90
2023-02-11T10:50:16.998Z,99.90
2023-02-11T10:52:44.155Z,99.90
2023-02-11T10:55:16.754Z,99.90
2023-02-11T10:57:51.293Z,99.90
2023-02-11T11:00:32.327Z,99.90
2023-02-11T11:03:01.327Z,99.90
2023-02-11T11:05:34.334Z,99.90
2023-02-11T11:08:04.302Z,99.90
2023-02-11T11:10:43.132Z,99.90
2023-02-11T11:13:28.491Z,99.90
2023-02-11T11:16:23.674Z,99.90
2023-02-11T11:18:52.567Z,99.90
2023-02-11T11:21:24.408Z,99.90
2023-02-11T11:23:57.419Z,99.90
2023-02-11T11:26:26.586Z,99.90
2023-02-11T11:28:59.800Z,99.90
2023-02-11T11:31:31.715Z,99.90
2023-02-11T11:34:01.383Z,99.90
2023-02-11T11:36:36.590Z,99.90
2023-02-11T11:39:17.573Z,99.90
2023-02-11T11:41:59.977Z,99.90
2023-02-11T11:44:30.107Z,99.90
2023-02-11T11:47:18.450Z,99.90
2023-02-11T11:49:52.041Z,99.90
2023-02-11T11:52:33.127Z,99.90
2023-02-11T11:55:06.571Z,99.90
2023-02-11T11:57:37.663Z,99.90
2023-02-11T12:00:05.809Z,99.90
2023-02-11T12:03:08.882Z,99.90
2023-02-11T12:05:42.371Z,99.90
2023-02-11T12:08:18.704Z,99.90
2023-02-11T12:11:09.506Z,99.90
2023-02-11T12:13:53.658Z,99.90
2023-02-11T12:16:33.376Z,99.90
2023-02-11T12:19:40.759Z,99.90
2023-02-11T12:22:12.017Z,99.90
2023-02-11T12:24:53.539Z,99.90
2023-02-11T12:27:37.337Z,99.90
2023-02-11T12:30:18.513Z,99.90
2023-02-11T12:32:54.909Z,99.90
2023-02-11T12:35:28.631Z,99.90
2023-02-11T12:38:18.557Z,99.90
2023-02-11T12:40:55.281Z,99.90
2023-02-11T12:43:24.795Z,99.90
2023-02-11T12:46:05.996Z,99.90
2023-02-11T12:49:17.799Z,99.90
2023-02-11T12:51:56.996Z,99.90
2023-02-11T12:54:28.606Z,99.90
2023-02-11T12:57:02.766Z,99.90
2023-02-11T12:59:41.324Z,99.90
2023-02-11T13:02:19.134Z,99.90
2023-02-11T13:04:51.601Z,99.90
2023-02-11T13:07:25.808Z,99.90
2023-02-11T13:09:58.403Z,99.90
2023-02-11T13:12:48.688Z,99.90
2023-02-11T13:15:15.789Z,99.90
2023-02-11T13:17:53.116Z,99.90
2023-02-11T13:20:30.313Z,99.90
2023-02-11T13:23:04.916Z,99.90
2023-02-11T13:25:36.186Z,99.90
2023-02-11T13:28:18.395Z,99.90
2023-02-11T13:30:52.323Z,99.90
2023-02-11T13:33:35.458Z,99.90
2023-02-11T13:36:15.961Z,99.90
2023-02-11T13:38:52.515Z,99.90
2023-02-11T13:41:24.751Z,99.90
2023-02-11T13:44:00.841Z,99.90
2023-02-11T13:46:30.875Z,99.90
2023-02-11T13:48:58.240Z,99.90
2023-02-11T13:51:37.056Z,99.90
2023-02-11T13:54:05.326Z,99.90
2023-02-11T13:56:34.845Z,99.90
2023-02-11T13:59:05.509Z,99.90
2023-02-11T14:02:16.648Z,99.90
2023-02-11T14:05:23.466Z,99.90
2023-02-11T14:08:41.289Z,99.90
2023-02-11T14:11:46.174Z,99.90
2023-02-11T14:14:24.167Z,99.90
2023-02-11T14:17:23.755Z,99.90
2023-02-11T14:19:51.183Z,99.90
2023-02-11T14:22:23.646Z,99.90
2023-02-11T14:24:54.617Z,99.90
2023-02-11T14:27:28.461Z,99.90
2023-02-11T14:30:29.325Z,99.90
2023-02-11T14:33:30.562Z,99.90
2023-02-11T14:36:05.704Z,99.90
2023-02-11T14:38:45.341Z,99.90
2023-02-11T14:41:20.579Z,99.90
2023-02-11T14:43:51.719Z,99.90
2023-02-11T14:46:22.074Z,99.90
2023-02-11T14:48:52.449Z,99.90
2023-02-11T14:51:23.364Z,99.90
2023-02-11T14:53:53.321Z,99.90
2023-02-11T14:56:22.184Z,99.90
2023-02-11T14:58:52.041Z,99.90
2023-02-11T15:01:32.007Z,99.90
2023-02-11T15:04:01.560Z,99.90
2023-02-11T15:06:31.121Z,99.90
2023-02-11T15:09:01.497Z,99.90
2023-02-11T15:11:31.668Z,99.90
2023-02-11T15:14:06.501Z,99.90
2023-02-11T15:16:40.166Z,99.90
2023-02-11T15:19:11.795Z,99.90
2023-02-11T15:21:39.726Z,99.90
2023-02-11T15:24:24.260Z,99.90
2023-02-11T15:26:59.170Z,99.90
2023-02-11T15:29:27.189Z,99.90
2023-02-11T15:32:13.337Z,99.90
2023-02-11T15:34:41.109Z,99.90
2023-02-11T15:37:08.097Z,99.90
2023-02-11T15:39:38.389Z,99.90
2023-02-11T15:42:25.777Z,99.90
2023-02-11T15:45:08.899Z,99.90
2023-02-11T15:47:37.578Z,99.90
2023-02-11T15:50:05.316Z,99.90
2023-02-11T15:52:32.766Z,99.90
2023-02-11T15:55:02.293Z,99.90
2023-02-11T15:57:29.925Z,99.90
2023-02-11T15:59:58.642Z,99.90
2023-02-11T16:02:30.672Z,99.90
2023-02-11T16:05:01.308Z,99.90
2023-02-11T16:07:43.578Z,99.90
2023-02-11T16:10:24.540Z,99.90
2023-02-11T16:12:59.375Z,99.90
2023-02-11T16:15:46.250Z,99.90
2023-02-11T16:18:38.265Z,99.90
2023-02-11T16:21:14.692Z,99.90
2023-02-11T16:23:44.414Z,99.90
2023-02-11T16:26:20.998Z,99.90
2023-02-11T16:28:48.122Z,99.90
2023-02-11T16:31:15.123Z,99.90
2023-02-11T16:33:42.198Z,99.90
2023-02-11T16:36:17.018Z,99.90
2023-02-11T16:38:44.198Z,99.90
2023-02-11T16:41:12.683Z,99.90
2023-02-11T16:43:40.448Z,99.90
2023-02-11T16:46:08.720Z,99.90
2023-02-11T16:48:35.798Z,99.90
2023-02-11T16:51:03.446Z,99.90
2023-02-11T16:53:32.716Z,99.90
2023-02-11T16:55:59.593Z,99.90
2023-02-11T16:58:26.386Z,99.90
2023-02-11T17:00:53.588Z,99.90
2023-02-11T17:03:23.692Z,99.90
2023-02-11T17:05:55.771Z,99.90
2023-02-11T17:08:23.242Z,99.90
2023-02-11T17:10:51.709Z,99.90
2023-02-11T17:13:19.020Z,99.90
2023-02-11T17:15:45.832Z,99.90
2023-02-11T17:18:14.613Z,99.90
2023-02-11T17:20:41.556Z,99.90
2023-02-11T17:23:08.753Z,99.90
2023-02-11T17:25:37.335Z,99.90
2023-02-11T17:28:06.360Z,99.90
2023-02-11T17:30:33.320Z,99.90
2023-02-11T17:33:00.132Z,99.90
2023-02-11T17:35:27.015Z,99.90
2023-02-11T17:37:54.033Z,99.90
2023-02-11T17:40:21.148Z,99.90
2023-02-11T17:42:47.978Z,99.90
2023-02-11T17:45:16.464Z,99.90
2023-02-11T17:47:43.642Z,99.90
2023-02-11T17:50:11.161Z,99.90
2023-02-11T17:52:38.030Z,99.90
2023-02-11T17:55:06.050Z,99.90
2023-02-11T17:57:33.345Z,99.90
2023-02-11T18:00:00.532Z,99.90
2023-02-11T18:02:28.734Z,99.90
2023-02-11T18:04:57.720Z,99.90
2023-02-11T18:07:25.185Z,99.90
2023-02-11T18:09:52.280Z,99.90
2023-02-11T18:12:26.541Z,99.90
2023-02-11T18:14:56.836Z,99.90
2023-02-11T18:17:25.346Z,99.90
2023-02-11T18:19:55.679Z,99.90
2023-02-11T18:22:23.368Z,99.90
2023-02-11T18:24:52.520Z,99.90
2023-02-11T18:27:19.498Z,99.90
2023-02-11T18:29:46.338Z,99.90
2023-02-11T18:32:14.172Z,99.90
2023-02-11T18:34:41.251Z,99.90
2023-02-11T18:37:10.714Z,99.90
2023-02-11T18:39:37.530Z,99.90
2023-02-11T18:42:05.188Z,99.90
2023-02-11T18:44:32.071Z,99.90
2023-02-11T18:46:59.592Z,99.90
2023-02-11T18:49:26.573Z,99.90
2023-02-11T18:51:53.919Z,99.90
2023-02-11T18:54:22.155Z,99.90
2023-02-11T18:56:49.292Z,99.90
2023-02-11T18:59:16.087Z,99.90
2023-02-11T19:01:47.141Z,99.90
2023-02-11T19:04:19.635Z,99.90
2023-02-11T19:06:49.665Z,99.90
2023-02-11T19:09:18.702Z,99.90
2023-02-11T19:11:47.308Z,99.90
2023-02-11T19:14:15.269Z,99.90
2023-02-11T19:16:43.879Z,99.90
2023-02-11T19:19:11.087Z,99.90
2023-02-11T19:21:38.122Z,99.90
2023-02-11T19:24:07.594Z,99.90
2023-02-11T19:26:35.304Z,99.90
2023-02-11T19:29:03.541Z,99.90
2023-02-11T19:31:32.459Z,99.90
2023-02-11T19:33:59.383Z,99.90
2023-02-11T19:36:26.627Z,99.90
2023-02-11T19:38:53.691Z,99.90
2023-02-11T19:41:22.800Z,99.90
2023-02-11T19:43:52.785Z,99.90
2023-02-11T19:46:21.755Z,99.90
2023-02-11T19:48:49.169Z,99.90
2023-02-11T19:51:16.865Z,99.90
2023-02-11T19:53:45.320Z,99.90
2023-02-11T19:56:13.802Z,99.90
2023-02-11T19:58:41.768Z,99.90
2023-02-11T20:01:10.447Z,99.90
2023-02-11T20:03:42.074Z,99.90
2023-02-11T20:06:12.061Z,99.90
2023-02-11T20:08:39.278Z,99.90
2023-02-11T20:11:08.434Z,99.90
2023-02-11T20:13:37.614Z,99.90
2023-02-11T20:16:06.556Z,99.90
2023-02-11T20:18:33.845Z,99.90
2023-02-11T20:21:07.008Z,99.90
2023-02-11T20:23:33.968Z,99.90
2023-02-11T20:26:05.996Z,99.90
2023-02-11T20:28:32.863Z,99.90
2023-02-11T20:31:00.173Z,99.90
2023-02-11T20:33:29.750Z,99.90
2023-02-11T20:35:57.981Z,99.90
2023-02-11T20:38:26.685Z,99.90
2023-02-11T20:40:54.231Z,99.90
2023-02-11T20:43:21.505Z,99.90
2023-02-11T20:45:49.060Z,99.90
2023-02-11T20:48:15.956Z,99.90
2023-02-11T20:50:42.871Z,99.90
2023-02-11T20:53:10.570Z,99.90
2023-02-11T20:55:40.045Z,99.90
2023-02-11T20:58:07.555Z,99.90
2023-02-11T21:00:36.621Z,99.90
2023-02-11T21:03:04.032Z,99.90
2023-02-11T21:05:31.508Z,99.90
2023-02-11T21:07:58.480Z,99.90
2023-02-11T21:10:25.506Z,99.90
2023-02-11T21:12:53.633Z,99.90
2023-02-11T21:15:23.365Z,99.90
2023-02-11T21:17:50.445Z,99.90
2023-02-11T21:20:17.942Z,99.90
2023-02-11T21:22:44.885Z,99.90
2023-02-11T21:25:12.140Z,99.90
2023-02-11T21:27:39.062Z,99.90
2023-02-11T21:30:08.851Z,99.90
2023-02-11T21:32:35.701Z,99.90
2023-02-11T21:35:02.837Z,99.90
2023-02-11T21:37:29.860Z,99.90
2023-02-11T21:39:56.695Z,99.90
2023-02-11T21:42:23.553Z,99.90
2023-02-11T21:44:50.846Z,99.90
2023-02-11T21:47:18.975Z,99.90
2023-02-11T21:49:46.201Z,99.90
2023-02-11T21:52:13.048Z,99.90
2023-02-11T21:54:40.069Z,99.90
2023-02-11T21:57:06.929Z,99.90
2023-02-11T21:59:33.974Z,99.90
2023-02-11T22:02:00.789Z,99.90
2023-02-11T22:04:29.445Z,99.90
2023-02-11T22:06:56.477Z,99.90
2023-02-11T22:09:23.666Z,99.90
2023-02-11T22:11:50.734Z,99.90
2023-02-11T22:14:17.844Z,99.90
2023-02-11T22:16:46.001Z,99.90
2023-02-11T22:19:13.746Z,99.90
2023-02-11T22:21:43.325Z,99.90
2023-02-11T22:24:10.681Z,99.90
2023-02-11T22:26:38.163Z,99.90
2023-02-11T22:29:04.993Z,99.90
2023-02-11T22:31:34.697Z,99.90
2023-02-11T22:34:03.988Z,99.90
2023-02-11T22:36:32.927Z,99.90
2023-02-11T22:39:02.876Z,99.90
2023-02-11T22:41:30.380Z,99.90
2023-02-11T22:43:57.555Z,99.90
2023-02-11T22:46:24.617Z,99.90
2023-02-11T22:48:51.834Z,99.90
2023-02-11T22:51:21.079Z,99.90
2023-02-11T22:53:53.369Z,99.90
2023-02-11T22:56:22.227Z,99.90
2023-02-11T22:58:49.623Z,99.90
2023-02-11T23:01:17.272Z,99.90
2023-02-11T23:03:44.502Z,99.90
2023-02-11T23:06:11.509Z,99.90
2023-02-11T23:08:40.342Z,99.90
2023-02-11T23:11:10.878Z,99.90
2023-02-11T23:13:41.731Z,99.90
2023-02-11T23:16:10.771Z,99.90
2023-02-11T23:18:42.294Z,99.90
2023-02-11T23:21:12.668Z,99.90
2023-02-11T23:23:40.380Z,99.90
2023-02-11T23:26:09.877Z,99.90
2023-02-11T23:28:37.285Z,99.90
2023-02-11T23:31:14.919Z,99.90
2023-02-11T23:33:42.177Z,99.90
2023-02-11T23:36:09.744Z,99.90
2023-02-11T23:38:37.211Z,99.90
2023-02-11T23:41:04.347Z,99.90
2023-02-11T23:43:31.731Z,99.90
2023-02-11T23:45:59.238Z,99.90
2023-02-11T23:48:27.684Z,99.90
2023-02-11T23:50:54.525Z,99.90
2023-02-11T23:53:21.811Z,99.90
2023-02-11T23:55:48.669Z,99.90
2023-02-11T23:58:15.989Z,99.90
